Time;durP1;ratioP1;P1;durP2;ratioP2;P2;SDS_P1;SDS_P2;PMS_P1;PMS_P2;Temp;Humidity;BMP_temperature;BMP_pressure;BME280_temperature;BME280_humidity;BME280_pressure;Samples;Min_cycle;Max_cycle;Signal;HPM_P1;HPM_P2
2023/04/17 00:01:05;;;;;;;8.65;4.50;;;;;;;24.18;39.38;99341.94;4332394;33;34002;-61
2023/04/17 00:03:32;;;;;;;7.35;4.10;;;;;;;24.08;39.55;99339.84;4332440;33;34217;-61
2023/04/17 00:06:00;;;;;;;7.75;4.20;;;;;;;24.06;39.63;99343.84;4332465;33;35322;-61
2023/04/17 00:08:27;;;;;;;7.75;4.53;;;;;;;24.05;39.65;99351.22;4332136;33;34060;-61
2023/04/17 00:10:55;;;;;;;9.18;3.97;;;;;;;24.05;39.67;99350.38;4323668;33;33648;-61
2023/04/17 00:13:34;;;;;;;8.52;4.22;;;;;;;24.05;39.66;99344.94;4329906;33;33525;-62
2023/04/17 00:16:02;;;;;;;11.85;4.80;;;;;;;24.05;39.69;99345.75;4332607;33;34672;-61
2023/04/17 00:18:30;;;;;;;8.55;4.00;;;;;;;24.03;39.72;99339.72;4332438;33;34963;-62
2023/04/17 00:20:58;;;;;;;9.10;3.92;;;;;;;24.03;39.76;99333.47;4332154;33;33607;-61
2023/04/17 00:23:26;;;;;;;6.53;4.03;;;;;;;24.03;39.77;99330.72;4332313;33;33020;-62
2023/04/17 00:25:53;;;;;;;8.00;3.70;;;;;;;24.02;39.76;99332.63;4332280;33;33639;-62
2023/04/17 00:28:21;;;;;;;8.20;4.00;;;;;;;24.03;39.71;99333.47;4331981;33;34581;-61
2023/04/17 00:30:48;;;;;;;9.45;3.90;;;;;;;24.02;39.72;99327.19;4332233;33;34852;-61
2023/04/17 00:33:17;;;;;;;7.12;4.10;;;;;;;24.02;39.71;99321.72;4332209;33;34531;-61
2023/04/17 00:35:44;;;;;;;8.75;4.62;;;;;;;24.01;39.70;99330.94;4332104;33;34414;-61
2023/04/17 00:38:12;;;;;;;6.95;4.20;;;;;;;24.02;39.70;99337.25;4332189;33;34594;-61
2023/04/17 00:40:40;;;;;;;8.70;4.20;;;;;;;23.99;39.70;99327.66;4332105;33;34175;-61
2023/04/17 00:43:08;;;;;;;8.00;3.97;;;;;;;24.00;39.72;99331.19;4331848;33;33660;-61
2023/04/17 00:45:36;;;;;;;7.57;4.12;;;;;;;24.00;39.71;99334.75;4331875;33;34000;-61
2023/04/17 00:48:04;;;;;;;8.90;4.12;;;;;;;24.00;39.69;99333.94;4332004;33;34065;-62
2023/04/17 00:50:32;;;;;;;8.77;3.83;;;;;;;23.99;39.70;99333.09;4318744;33;34045;-61
2023/04/17 00:52:59;;;;;;;7.10;4.00;;;;;;;24.00;39.69;99328.47;4332063;33;35016;-61
2023/04/17 00:55:27;;;;;;;6.68;3.67;;;;;;;23.99;39.67;99321.38;4318802;33;34531;-61
2023/04/17 00:57:55;;;;;;;7.00;3.78;;;;;;;23.98;39.68;99336.91;4331942;33;33889;-61
2023/04/17 01:00:24;;;;;;;9.10;4.22;;;;;;;23.98;39.69;99331.47;4319197;33;33644;-61
2023/04/17 01:02:51;;;;;;;6.53;3.90;;;;;;;23.98;39.75;99326.00;4332372;33;34309;-61
2023/04/17 01:05:19;;;;;;;8.35;3.80;;;;;;;23.96;39.73;99328.13;4332134;33;34000;-61
2023/04/17 01:07:47;;;;;;;5.62;3.62;;;;;;;23.97;39.73;99323.50;4332350;33;34567;-61
2023/04/17 01:10:14;;;;;;;7.50;4.00;;;;;;;23.96;39.70;99317.22;4319049;33;33500;-61
2023/04/17 01:12:45;;;;;;;8.77;4.47;;;;;;;23.95;39.72;99318.31;4331917;33;33119;-61
2023/04/17 01:15:13;;;;;;;9.68;4.00;;;;;;;23.95;39.74;99322.94;4331957;33;34954;-61
2023/04/17 01:17:40;;;;;;;7.53;3.97;;;;;;;23.94;39.78;99322.09;4332012;33;34050;-61
2023/04/17 01:20:09;;;;;;;6.25;3.50;;;;;;;23.95;39.80;99322.94;4331703;33;34899;-61
2023/04/17 01:22:37;;;;;;;6.22;3.97;;;;;;;23.95;39.80;99325.66;4331973;33;33713;-61
2023/04/17 01:25:05;;;;;;;8.32;3.78;;;;;;;23.95;39.78;99326.47;4331819;33;33908;-61
2023/04/17 01:27:34;;;;;;;7.90;4.32;;;;;;;23.94;39.79;99322.09;4331858;33;33786;-61
2023/04/17 01:30:01;;;;;;;7.28;3.90;;;;;;;23.92;39.83;99321.50;4332082;33;34662;-61
2023/04/17 01:32:30;;;;;;;7.80;3.95;;;;;;;23.91;39.86;99323.41;4318667;33;33544;-61
2023/04/17 01:34:58;;;;;;;8.02;3.97;;;;;;;23.92;39.86;99326.94;4331949;33;33817;-61
2023/04/17 01:37:27;;;;;;;5.47;3.25;;;;;;;23.91;39.89;99317.94;4331741;33;33900;-61
2023/04/17 01:39:57;;;;;;;6.62;3.75;;;;;;;23.91;39.88;99320.69;4331478;33;34774;-61
2023/04/17 01:42:25;;;;;;;6.62;3.65;;;;;;;23.92;39.87;99319.62;4331563;33;34055;-61
2023/04/17 01:44:52;;;;;;;7.03;4.30;;;;;;;23.91;39.96;99311.69;4331281;33;34056;-61
2023/04/17 01:47:20;;;;;;;6.05;3.75;;;;;;;23.91;40.03;99311.69;4331271;33;34124;-61
2023/04/17 01:49:47;;;;;;;7.70;3.87;;;;;;;23.91;40.02;99314.41;4331377;33;34051;-61
2023/04/17 01:52:15;;;;;;;6.55;3.33;;;;;;;23.90;40.02;99312.75;4331401;33;34836;-61
2023/04/17 01:54:42;;;;;;;6.07;3.62;;;;;;;23.89;40.00;99320.09;4331314;33;34007;-61
2023/04/17 01:57:10;;;;;;;8.50;4.15;;;;;;;23.89;40.00;99316.56;4331752;33;33825;-61
2023/04/17 01:59:37;;;;;;;5.45;3.25;;;;;;;23.89;39.99;99317.38;4333535;33;33748;-61
2023/04/17 02:02:05;;;;;;;7.55;3.70;;;;;;;23.88;40.05;99313.00;4333206;33;34310;-61
2023/04/17 02:04:32;;;;;;;6.55;3.10;;;;;;;23.88;40.06;99314.91;4333162;33;34732;-61
2023/04/17 02:07:00;;;;;;;8.90;4.00;;;;;;;23.89;40.12;99311.09;4333187;33;34862;-61
2023/04/17 02:09:28;;;;;;;6.50;3.35;;;;;;;23.89;40.15;99302.94;4333144;33;34935;-61
2023/04/17 02:11:56;;;;;;;7.93;4.28;;;;;;;23.88;40.19;99310.28;4333106;33;33693;-61
2023/04/17 02:14:23;;;;;;;6.95;3.37;;;;;;;23.88;40.18;99309.44;4333145;33;34690;-61
2023/04/17 02:16:52;;;;;;;7.45;3.45;;;;;;;23.88;40.16;99314.91;4319701;33;33604;-61
2023/04/17 02:19:20;;;;;;;7.87;3.87;;;;;;;23.89;40.16;99311.09;4333164;33;34148;-61
2023/04/17 02:21:47;;;;;;;5.82;3.53;;;;;;;23.88;40.14;99310.28;4333054;33;33523;-61
2023/04/17 02:24:15;;;;;;;6.15;3.60;;;;;;;23.87;40.15;99313.22;4332919;33;34726;-61
2023/04/17 02:26:42;;;;;;;6.07;3.37;;;;;;;23.87;40.13;99308.59;4333021;33;34530;-61
2023/04/17 02:29:12;;;;;;;4.87;3.00;;;;;;;23.87;40.12;99319.50;4333110;33;34702;-61
2023/04/17 02:31:40;;;;;;;6.43;3.40;;;;;;;23.88;40.10;99309.44;4332914;33;34239;-62
2023/04/17 02:34:10;;;;;;;7.00;3.85;;;;;;;23.87;40.09;99302.31;4332860;33;34672;-61
2023/04/17 02:36:38;;;;;;;7.87;3.50;;;;;;;23.88;40.09;99304.00;4333293;33;33598;-61
2023/04/17 02:39:08;;;;;;;7.50;3.92;;;;;;;23.86;40.09;99308.84;4333247;33;34268;-61
2023/04/17 02:41:38;;;;;;;;;;;;;;;23.87;40.13;99307.78;4333237;33;33081;-61
2023/04/17 02:44:06;;;;;;;6.68;3.17;;;;;;;23.95;39.94;99301.94;4332903;33;33830;-61
2023/04/17 02:46:33;;;;;;;6.35;3.42;;;;;;;23.88;40.12;99295.84;4332784;33;33807;-62
2023/04/17 02:49:02;;;;;;;6.90;3.90;;;;;;;23.84;40.18;99292.75;4333004;33;34123;-61
2023/04/17 02:51:30;;;;;;;7.22;3.45;;;;;;;23.84;40.21;99298.19;4332871;33;34427;-61
2023/04/17 02:53:58;;;;;;;6.50;3.25;;;;;;;23.83;40.20;99299.28;4333249;33;34899;-61
2023/04/17 02:56:25;;;;;;;5.68;3.12;;;;;;;23.83;40.19;99293.00;4332930;33;35404;-61
2023/04/17 02:58:52;;;;;;;7.03;3.80;;;;;;;23.83;40.18;99298.44;4332715;33;34910;-61
2023/04/17 03:01:21;;;;;;;5.93;2.85;;;;;;;23.83;40.19;99299.28;4332833;33;34224;-61
2023/04/17 03:03:48;;;;;;;7.43;3.22;;;;;;;23.81;40.20;99297.84;4333105;33;33646;-61
2023/04/17 03:06:16;;;;;;;8.00;3.60;;;;;;;23.81;40.21;99303.31;4332982;33;34737;-61
2023/04/17 03:08:44;;;;;;;6.37;2.95;;;;;;;23.82;40.17;99304.94;4333087;33;33671;-61
2023/04/17 03:11:12;;;;;;;6.28;3.58;;;;;;;23.83;40.14;99304.72;4332836;33;33390;-61
2023/04/17 03:13:39;;;;;;;8.65;3.50;;;;;;;23.82;40.20;99313.13;4332701;33;34655;-62
2023/04/17 03:16:07;;;;;;;5.80;2.97;;;;;;;23.82;40.24;99307.66;4332877;33;34092;-61
2023/04/17 03:18:42;;;;;;;8.40;3.67;;;;;;;23.82;40.29;99313.13;4332778;33;34097;-61
2023/04/17 03:21:09;;;;;;;8.30;3.50;;;;;;;23.81;40.30;99316.91;4313359;33;34330;-61
2023/04/17 03:23:37;;;;;;;8.88;3.80;;;;;;;23.82;40.31;99315.84;4318045;33;33986;-61
2023/04/17 03:26:05;;;;;;;10.32;3.92;;;;;;;23.81;40.37;99309.56;4318402;33;33805;-61
2023/04/17 03:28:33;;;;;;;8.10;3.28;;;;;;;23.81;40.36;99314.19;4317865;33;33542;-61
2023/04/17 03:31:01;;;;;;;9.50;3.67;;;;;;;23.81;40.33;99311.47;4317986;33;33261;-61
2023/04/17 03:33:29;;;;;;;7.82;3.20;;;;;;;23.80;40.34;99318.00;4318233;33;33888;-61
2023/04/17 03:35:57;;;;;;;5.90;3.05;;;;;;;23.80;40.29;99315.28;4317943;33;34577;-61
2023/04/17 03:38:25;;;;;;;9.63;3.55;;;;;;;23.80;40.37;99309.81;4318012;33;34019;-61
2023/04/17 03:40:53;;;;;;;6.12;3.60;;;;;;;23.79;40.32;99316.34;4304629;33;33570;-62
2023/04/17 03:43:21;;;;;;;8.18;3.50;;;;;;;23.79;40.35;99313.63;4305191;33;34646;-61
2023/04/17 03:45:49;;;;;;;9.43;3.40;;;;;;;23.79;40.34;99319.06;4326946;33;34143;-62
2023/04/17 03:48:17;;;;;;;7.90;3.20;;;;;;;23.79;40.36;99321.78;4332141;33;34319;-62
2023/04/17 03:50:45;;;;;;;6.78;3.55;;;;;;;23.78;40.33;99311.94;4332786;33;34440;-61
2023/04/17 03:53:12;;;;;;;7.95;3.30;;;;;;;23.77;40.34;99316.56;4332514;33;34603;-61
2023/04/17 03:55:40;;;;;;;5.60;2.80;;;;;;;23.77;40.35;99318.47;4332322;33;34660;-62
2023/04/17 03:58:09;;;;;;;6.37;3.45;;;;;;;23.78;40.31;99325.56;4332829;33;34153;-62
2023/04/17 04:00:37;;;;;;;12.20;3.60;;;;;;;23.79;40.25;99322.63;4332577;33;33494;-60
2023/04/17 04:03:05;;;;;;;17.80;3.90;;;;;;;23.79;40.26;99321.78;4307326;33;33804;-60
2023/04/17 04:05:34;;;;;;;14.40;3.37;;;;;;;23.78;40.30;99317.38;4332539;33;34785;-61
2023/04/17 04:08:01;;;;;;;7.43;3.22;;;;;;;23.78;40.14;99331.00;4332771;33;34132;-60
2023/04/17 04:10:31;;;;;;;10.77;3.72;;;;;;;23.78;39.98;99328.28;4318804;33;32521;-60
2023/04/17 04:12:59;;;;;;;8.05;3.55;;;;;;;23.77;39.88;99326.62;4319149;33;33822;-61
2023/04/17 04:15:27;;;;;;;8.05;2.92;;;;;;;23.75;39.80;99323.34;4332683;33;34028;-60
2023/04/17 04:17:55;;;;;;;8.93;3.33;;;;;;;23.75;39.74;99332.34;4332358;33;33957;-60
2023/04/17 04:20:22;;;;;;;6.75;3.28;;;;;;;23.73;39.69;99334.44;4332085;33;34316;-61
2023/04/17 04:22:52;;;;;;;5.82;3.17;;;;;;;23.72;39.65;99332.81;4332537;33;34853;-61
2023/04/17 04:25:20;;;;;;;10.57;2.80;;;;;;;23.71;39.62;99336.59;4331777;33;34842;-60
2023/04/17 04:27:51;;;;;;;7.90;3.30;;;;;;;23.71;39.57;99333.06;4332559;33;34080;-60
2023/04/17 04:30:25;;;;;;;5.57;2.78;;;;;;;23.71;39.55;99341.22;4332351;33;33528;-60
2023/04/17 04:32:54;;;;;;;8.30;3.37;;;;;;;23.70;39.51;99339.56;4331554;33;34851;-60
2023/04/17 04:35:24;;;;;;;8.40;3.07;;;;;;;23.69;39.46;99341.47;4331130;33;33490;-59
2023/04/17 04:37:53;;;;;;;11.75;3.47;;;;;;;23.68;39.41;99348.78;4331015;33;33989;-60
2023/04/17 04:40:23;;;;;;;9.05;3.00;;;;;;;23.67;39.38;99352.59;4330516;33;33516;-60
2023/04/17 04:42:50;;;;;;;13.10;3.25;;;;;;;23.68;39.34;99356.13;4330313;33;33664;-60
2023/04/17 04:45:18;;;;;;;6.65;3.03;;;;;;;23.66;39.34;99356.38;4330384;33;34814;-60
2023/04/17 04:47:46;;;;;;;8.93;2.90;;;;;;;23.66;39.32;99371.91;4331314;33;34094;-60
2023/04/17 04:50:13;;;;;;;4.90;2.75;;;;;;;23.65;39.31;99370.25;4331282;33;33492;-60
2023/04/17 04:52:41;;;;;;;6.95;3.35;;;;;;;23.65;39.26;99370.25;4317751;33;33960;-60
2023/04/17 04:55:11;;;;;;;6.85;2.60;;;;;;;23.64;39.27;99372.16;4331887;33;34143;-60
2023/04/17 04:57:39;;;;;;;5.68;2.67;;;;;;;23.64;39.25;99376.75;4332358;33;34036;-60
2023/04/17 05:00:08;;;;;;;5.75;2.75;;;;;;;23.63;39.23;99373.16;4331989;33;33262;-60
2023/04/17 05:02:36;;;;;;;5.90;2.55;;;;;;;23.63;39.22;99378.59;4332329;33;34733;-60
2023/04/17 05:05:05;;;;;;;7.47;3.20;;;;;;;23.62;39.22;99378.84;4332202;33;34916;-60
2023/04/17 05:07:33;;;;;;;5.57;2.80;;;;;;;23.61;39.19;99378.03;4332228;33;34116;-60
2023/04/17 05:10:00;;;;;;;6.30;2.50;;;;;;;23.61;39.17;99383.47;4332200;33;34060;-60
2023/04/17 05:12:30;;;;;;;6.60;3.07;;;;;;;23.60;39.17;99375.56;4332013;33;33381;-60
2023/04/17 05:14:58;;;;;;;8.18;2.30;;;;;;;23.60;39.14;99378.28;4332279;33;34132;-60
2023/04/17 05:17:25;;;;;;;7.12;3.37;;;;;;;23.59;39.14;99377.44;4332037;33;33228;-60
2023/04/17 05:19:53;;;;;;;5.00;2.22;;;;;;;23.58;39.14;99378.50;4331961;33;33842;-60
2023/04/17 05:22:21;;;;;;;6.60;2.55;;;;;;;23.57;39.15;99379.56;4332085;33;33835;-60
2023/04/17 05:24:50;;;;;;;5.40;2.53;;;;;;;23.58;39.13;99372.22;4332026;33;34120;-60
2023/04/17 05:27:17;;;;;;;6.25;2.92;;;;;;;23.58;39.13;99380.41;4331579;33;33698;-60
2023/04/17 05:29:45;;;;;;;7.45;2.95;;;;;;;23.56;39.12;99383.37;4331936;33;33642;-60
2023/04/17 05:32:13;;;;;;;5.07;2.40;;;;;;;23.57;39.10;99382.28;4330593;33;34826;-60
2023/04/17 05:34:42;;;;;;;6.45;2.37;;;;;;;23.57;39.11;99384.19;4331840;33;34037;-60
2023/04/17 05:37:10;;;;;;;5.43;2.60;;;;;;;23.57;39.08;99381.47;4331809;33;34248;-60
2023/04/17 05:39:38;;;;;;;7.60;2.67;;;;;;;23.57;39.07;99389.63;4331623;33;33379;-60
2023/04/17 05:42:07;;;;;;;6.80;3.17;;;;;;;23.56;39.08;99388.81;4331424;33;33708;-60
2023/04/17 05:44:35;;;;;;;6.10;2.80;;;;;;;23.54;39.06;99382.75;4331506;33;34063;-60
2023/04/17 05:47:03;;;;;;;4.55;2.15;;;;;;;23.55;39.05;99384.44;4331516;33;33947;-60
2023/04/17 05:49:30;;;;;;;6.35;2.75;;;;;;;23.54;39.07;99384.66;4331159;33;33775;-60
2023/04/17 05:51:58;;;;;;;6.18;2.70;;;;;;;23.55;39.02;99387.16;4331607;33;34938;-59
2023/04/17 05:54:27;;;;;;;5.80;2.80;;;;;;;23.55;39.02;99389.03;4318151;33;34895;-60
2023/04/17 05:56:56;;;;;;;5.37;2.50;;;;;;;23.54;39.02;99392.81;4331545;33;34709;-60
2023/04/17 05:59:24;;;;;;;5.47;2.58;;;;;;;23.53;39.01;99389.28;4331757;33;33456;-60
2023/04/17 06:01:52;;;;;;;5.40;2.62;;;;;;;23.55;39.00;99395.34;4331661;33;33594;-60
2023/04/17 06:04:20;;;;;;;6.75;2.65;;;;;;;23.54;38.98;99390.94;4331463;33;33818;-60
2023/04/17 06:06:48;;;;;;;6.95;2.95;;;;;;;23.54;38.97;99395.56;4331541;33;33620;-59
2023/04/17 06:09:16;;;;;;;5.18;2.67;;;;;;;23.53;38.97;99393.91;4331227;33;33490;-60
2023/04/17 06:11:44;;;;;;;6.05;2.58;;;;;;;23.53;38.97;99402.91;4331354;33;34277;-59
2023/04/17 06:14:11;;;;;;;4.50;2.42;;;;;;;23.52;38.96;99395.78;4318247;33;33478;-59
2023/04/17 06:16:40;;;;;;;5.45;2.42;;;;;;;23.52;38.94;99400.41;4331303;33;34930;-60
2023/04/17 06:19:07;;;;;;;4.82;2.67;;;;;;;23.52;38.93;99401.25;4331149;33;34555;-60
2023/04/17 06:21:35;;;;;;;5.20;2.58;;;;;;;23.50;38.94;99400.66;4331171;33;33632;-60
2023/04/17 06:24:03;;;;;;;8.68;2.65;;;;;;;23.51;38.93;99401.50;4330982;33;33905;-60
2023/04/17 06:26:31;;;;;;;5.00;2.30;;;;;;;23.50;38.93;99399.81;4331080;33;33855;-60
2023/04/17 06:28:59;;;;;;;4.72;2.20;;;;;;;23.50;38.92;99391.63;4330906;33;33421;-59
2023/04/17 06:31:28;;;;;;;5.15;2.37;;;;;;;23.51;38.91;99404.22;4330950;33;34977;-60
2023/04/17 06:33:56;;;;;;;4.57;2.20;;;;;;;23.51;38.88;99407.75;4331044;33;34039;-60
2023/04/17 06:36:26;;;;;;;3.95;2.12;;;;;;;23.51;38.89;99410.47;4331165;33;34553;-60
2023/04/17 06:38:53;;;;;;;4.80;2.50;;;;;;;23.50;38.89;99403.38;4330815;33;34217;-60
2023/04/17 06:41:21;;;;;;;4.68;2.20;;;;;;;23.51;38.86;99407.75;4331044;33;33481;-60
2023/04/17 06:43:49;;;;;;;6.87;2.60;;;;;;;23.50;38.88;99417.00;4331659;33;33518;-60
2023/04/17 06:46:16;;;;;;;5.82;2.28;;;;;;;23.49;38.88;99415.31;4332789;33;33489;-60
2023/04/17 06:48:44;;;;;;;4.85;2.40;;;;;;;23.49;38.85;99423.50;4333176;33;33154;-61
2023/04/17 06:51:12;;;;;;;4.68;2.22;;;;;;;23.50;38.85;99425.16;4332817;33;34872;-60
2023/04/17 06:53:39;;;;;;;5.12;2.70;;;;;;;23.50;38.83;99421.59;4332826;33;35198;-60
2023/04/17 06:56:07;;;;;;;4.85;2.78;;;;;;;23.51;38.88;99421.37;4332853;33;33976;-59
2023/04/17 06:58:41;;;;;;;7.28;2.53;;;;;;;23.51;38.96;99429.53;4333220;33;33487;-60
2023/04/17 07:01:10;;;;;;;6.40;2.60;;;;;;;23.51;39.02;99424.09;4332694;33;34964;-60
2023/04/17 07:03:38;;;;;;;4.50;2.28;;;;;;;23.53;39.04;99430.13;4333137;33;34376;-61
2023/04/17 07:06:06;;;;;;;6.37;2.53;;;;;;;23.54;39.07;99439.13;4332792;33;35011;-59
2023/04/17 07:08:34;;;;;;;6.72;2.58;;;;;;;23.55;39.06;99430.75;4332760;33;34140;-60
2023/04/17 07:11:01;;;;;;;4.55;2.00;;;;;;;23.56;39.10;99437.00;4332805;33;34701;-60
2023/04/17 07:13:31;;;;;;;4.80;2.28;;;;;;;23.58;39.10;99437.59;4332782;33;34846;-60
2023/04/17 07:16:00;;;;;;;4.12;2.00;;;;;;;23.57;39.11;99433.22;4332766;33;33906;-60
2023/04/17 07:18:30;;;;;;;3.97;2.00;;;;;;;23.60;39.06;99430.84;4332792;33;34076;-60
2023/04/17 07:20:58;;;;;;;4.95;2.00;;;;;;;23.61;39.06;99429.78;4332419;33;33728;-60
2023/04/17 07:23:25;;;;;;;5.43;1.92;;;;;;;23.63;39.06;99435.81;4332766;33;34495;-59
2023/04/17 07:25:53;;;;;;;4.85;2.15;;;;;;;23.65;39.11;99438.34;4332822;33;33723;-60
2023/04/17 07:28:20;;;;;;;3.55;1.70;;;;;;;23.66;39.11;99438.09;4332588;33;33138;-60
2023/04/17 07:30:53;;;;;;;3.72;1.90;;;;;;;23.65;39.12;99431.00;4332447;33;34895;-60
2023/04/17 07:33:21;;;;;;;3.75;1.98;;;;;;;23.68;39.12;99424.22;4332726;33;33661;-60
2023/04/17 07:35:48;;;;;;;4.62;2.40;;;;;;;23.68;39.12;99424.22;4332575;33;33976;-60
2023/04/17 07:38:16;;;;;;;6.87;2.30;;;;;;;23.70;39.14;99426.75;4332571;33;34342;-60
2023/04/17 07:40:43;;;;;;;5.43;2.40;;;;;;;23.71;39.18;99431.13;4332645;33;34047;-60
2023/04/17 07:43:11;;;;;;;4.72;2.03;;;;;;;23.73;39.26;99437.16;4332364;33;33873;-60
2023/04/17 07:45:38;;;;;;;4.43;2.20;;;;;;;23.73;39.39;99440.69;4332432;33;34036;-59
2023/04/17 07:48:08;;;;;;;5.82;2.05;;;;;;;23.75;39.52;99435.03;4332420;33;33260;-60
2023/04/17 07:50:36;;;;;;;4.85;2.20;;;;;;;23.78;39.59;99450.88;4332302;33;34891;-60
2023/04/17 07:53:03;;;;;;;3.60;1.80;;;;;;;23.78;39.69;99440.84;4332520;33;33243;-60
2023/04/17 07:55:31;;;;;;;3.95;1.87;;;;;;;23.79;39.79;99445.22;4331893;33;34970;-59
2023/04/17 07:58:00;;;;;;;6.62;2.33;;;;;;;23.81;39.88;99447.69;4332290;33;33536;-60
2023/04/17 08:00:28;;;;;;;4.70;2.22;;;;;;;23.82;39.99;99454.78;4332500;33;33600;-60
2023/04/17 08:02:57;;;;;;;7.30;2.40;;;;;;;23.84;39.98;99439.06;4332367;33;34926;-60
2023/04/17 08:05:24;;;;;;;4.90;1.95;;;;;;;23.84;40.11;99439.06;4332351;33;34066;-60
2023/04/17 08:07:52;;;;;;;5.90;2.17;;;;;;;23.85;40.18;99446.97;4332462;33;34460;-60
2023/04/17 08:10:20;;;;;;;5.28;2.53;;;;;;;23.87;40.25;99444.84;4332283;33;33702;-60
2023/04/17 08:12:47;;;;;;;5.05;2.25;;;;;;;23.87;40.24;99447.56;4332619;33;33526;-60
2023/04/17 08:15:14;;;;;;;4.75;2.37;;;;;;;23.90;40.18;99441.62;4332618;33;34113;-59
2023/04/17 08:17:42;;;;;;;4.62;1.90;;;;;;;23.90;40.17;99443.53;4332185;33;33516;-59
2023/04/17 08:20:10;;;;;;;4.32;2.05;;;;;;;23.92;40.16;99452.28;4332189;33;34806;-59
2023/04/17 08:22:39;;;;;;;5.37;2.53;;;;;;;23.93;40.13;99448.53;4332464;33;33641;-60
2023/04/17 08:25:10;;;;;;;2.90;1.77;;;;;;;23.93;40.12;99449.34;4332226;33;34741;-60
2023/04/17 08:27:39;;;;;;;4.72;2.00;;;;;;;23.94;40.14;99442.00;4332296;33;33296;-60
2023/04/17 08:30:09;;;;;;;5.43;2.13;;;;;;;23.96;40.14;99441.75;4331109;33;32654;-59
2023/04/17 08:32:40;;;;;;;4.85;2.08;;;;;;;23.98;40.14;99442.38;4332241;33;34109;-59
2023/04/17 08:35:10;;;;;;;4.07;2.08;;;;;;;23.98;40.14;99445.91;4332239;33;33908;-60
2023/04/17 08:37:38;;;;;;;8.90;2.20;;;;;;;23.98;40.11;99443.19;4332130;33;33528;-60
2023/04/17 08:40:12;;;;;;;4.68;2.30;;;;;;;24.00;40.12;99443.75;4332175;33;33669;-59
2023/04/17 08:42:40;;;;;;;4.47;1.83;;;;;;;24.01;40.09;99444.59;4332164;33;33962;-60
2023/04/17 08:45:12;;;;;;;3.53;1.80;;;;;;;24.02;40.10;99446.28;4330076;33;34263;-60
2023/04/17 08:47:40;;;;;;;3.37;1.80;;;;;;;24.02;40.12;99435.38;4332107;33;33544;-60
2023/04/17 08:50:17;;;;;;;3.85;1.60;;;;;;;24.02;40.10;99436.19;4329846;33;33946;-61
2023/04/17 08:52:47;;;;;;;6.37;2.28;;;;;;;24.03;40.07;99437.84;4318194;33;33839;-62
2023/04/17 08:55:16;;;;;;;4.32;1.90;;;;;;;24.03;40.07;99440.56;4318381;33;34945;-60
2023/04/17 08:58:07;;;;;;;5.35;2.35;;;;;;;24.04;40.08;99425.03;4332063;33;33512;-61
2023/04/17 09:00:36;;;;;;;4.43;2.10;;;;;;;24.07;40.06;99438.19;4332106;33;34823;-62
2023/04/17 09:03:09;;;;;;;5.40;1.90;;;;;;;24.05;40.07;99440.31;4331904;33;33978;-62
2023/04/17 09:05:42;;;;;;;4.22;2.00;;;;;;;24.05;40.09;99437.59;4319441;33;34830;-62
2023/04/17 09:08:13;;;;;;;3.33;1.75;;;;;;;24.06;40.07;99441.97;4332020;33;34169;-61
2023/04/17 09:10:42;;;;;;;7.55;2.25;;;;;;;24.05;40.05;99438.41;4331940;33;34449;-61
2023/04/17 09:13:13;;;;;;;6.20;1.87;;;;;;;24.05;40.04;99434.88;4331568;33;34910;-62
2023/04/17 09:15:42;;;;;;;4.45;2.20;;;;;;;24.05;40.00;99438.41;4331815;33;34024;-62
2023/04/17 09:18:31;;;;;;;2.78;1.50;;;;;;;24.05;40.04;99445.78;4319052;33;33488;-62
2023/04/17 09:20:59;;;;;;;7.45;2.35;;;;;;;24.06;40.10;99436.53;4318846;33;34150;-61
2023/04/17 09:23:28;;;;;;;5.53;1.90;;;;;;;24.04;40.23;99434.03;4331580;33;34123;-61
2023/04/17 09:26:12;;;;;;;6.10;1.90;;;;;;;24.04;40.35;99439.50;4331548;33;34041;-62
2023/04/17 09:28:40;;;;;;;4.05;1.95;;;;;;;24.06;40.41;99431.06;4331819;33;33193;-61
2023/04/17 09:31:17;;;;;;;5.20;2.15;;;;;;;24.04;40.52;99438.66;4331601;33;33947;-62
2023/04/17 09:34:01;;;;;;;4.25;2.10;;;;;;;24.04;40.50;99441.41;4331728;33;34794;-61
2023/04/17 09:36:37;;;;;;;3.33;1.60;;;;;;;24.05;40.46;99440.31;4331494;33;33909;-61
2023/04/17 09:39:19;;;;;;;5.07;1.90;;;;;;;24.01;40.49;99437.25;4318436;33;33256;-61
2023/04/17 09:41:46;;;;;;;4.22;2.10;;;;;;;24.03;40.39;99431.56;4331509;33;34115;-61
2023/04/17 09:44:25;;;;;;;6.28;2.20;;;;;;;24.02;40.35;99428.03;4331389;33;34052;-62
2023/04/17 09:46:53;;;;;;;5.80;2.05;;;;;;;24.02;40.25;99435.38;4331248;33;34868;-61
2023/04/17 09:49:44;;;;;;;7.12;2.60;;;;;;;24.00;40.19;99435.59;4331201;33;34293;-61
2023/04/17 09:52:11;;;;;;;5.65;2.40;;;;;;;24.01;40.15;99428.22;4318221;33;34208;-61
2023/04/17 09:54:39;;;;;;;3.60;1.92;;;;;;;23.98;40.09;99426.00;4317977;33;34568;-61
2023/04/17 09:57:07;;;;;;;4.70;1.90;;;;;;;23.97;40.04;99422.47;4331609;33;33988;-61
2023/04/17 09:59:44;;;;;;;5.72;2.10;;;;;;;23.97;39.96;99419.72;4331423;33;33024;-61
2023/04/17 10:02:12;;;;;;;4.68;1.83;;;;;;;23.98;39.85;99423.28;4331037;33;33764;-61
2023/04/17 10:04:40;;;;;;;4.00;1.90;;;;;;;23.97;39.76;99422.47;4330798;33;34177;-60
2023/04/17 10:07:08;;;;;;;8.38;2.33;;;;;;;23.96;39.70;99414.50;4330820;33;34894;-61
2023/04/17 10:09:36;;;;;;;4.93;2.15;;;;;;;23.96;39.65;99417.22;4331380;33;33231;-61
2023/04/17 10:12:04;;;;;;;4.10;2.00;;;;;;;23.96;39.64;99417.22;4331097;33;33756;-61
2023/04/17 10:14:36;;;;;;;4.40;2.33;;;;;;;23.96;39.62;99422.69;4318092;33;34000;-61
2023/04/17 10:17:27;;;;;;;4.47;1.92;;;;;;;23.94;39.62;99406.56;4306184;33;33974;-61
2023/04/17 10:19:55;;;;;;;3.58;2.12;;;;;;;23.96;39.62;99409.06;4332660;33;34424;-61
2023/04/17 10:22:23;;;;;;;3.50;1.90;;;;;;;23.94;39.60;99406.56;4319958;33;34095;-61
2023/04/17 10:25:10;;;;;;;4.45;1.98;;;;;;;23.93;39.63;99402.19;4333021;33;34153;-61
2023/04/17 10:27:40;;;;;;;3.55;1.98;;;;;;;23.94;39.61;99406.56;4332860;33;34203;-61
2023/04/17 10:30:11;;;;;;;4.75;2.42;;;;;;;23.92;39.60;99411.41;4332433;33;34330;-61
2023/04/17 10:32:40;;;;;;;3.80;2.00;;;;;;;23.90;39.60;99406.22;4332682;33;34653;-61
2023/04/17 10:35:14;;;;;;;4.93;2.20;;;;;;;23.91;39.61;99415.22;4332852;33;33975;-61
2023/04/17 10:37:51;;;;;;;4.53;1.90;;;;;;;23.91;39.58;99405.16;4332999;33;33591;-61
2023/04/17 10:40:22;;;;;;;5.35;2.10;;;;;;;23.89;39.59;99399.13;4333029;33;33143;-61
2023/04/17 10:43:21;;;;;;;5.28;2.50;;;;;;;23.88;39.60;99396.66;4332694;33;34066;-61
2023/04/17 10:45:52;;;;;;;5.17;2.60;;;;;;;23.90;39.58;99405.38;4332880;33;34432;-61
2023/04/17 10:48:37;;;;;;;4.68;1.87;;;;;;;23.87;39.59;99406.69;4332683;33;34732;-61
2023/04/17 10:51:25;;;;;;;5.37;2.20;;;;;;;23.87;39.59;99400.41;4332858;33;34300;-61
2023/04/17 10:53:53;;;;;;;4.47;2.30;;;;;;;23.87;39.55;99395.78;4332589;33;33850;-61
2023/04/17 10:56:25;;;;;;;4.60;1.90;;;;;;;23.86;39.55;99401.47;4332728;33;34035;-61
2023/04/17 10:58:57;;;;;;;4.03;2.50;;;;;;;23.84;39.56;99403.62;4332902;33;34004;-61
2023/04/17 11:01:29;;;;;;;4.35;2.12;;;;;;;23.86;39.54;99396.03;4332792;33;33340;-61
2023/04/17 11:03:58;;;;;;;4.62;2.00;;;;;;;23.84;39.53;99396.28;4319562;33;34093;-61
2023/04/17 11:06:27;;;;;;;5.90;2.00;;;;;;;23.84;39.50;99401.72;4332885;33;34527;-62
2023/04/17 11:08:58;;;;;;;4.55;2.03;;;;;;;23.84;39.47;99395.47;4332580;33;33745;-62
2023/04/17 11:11:25;;;;;;;4.62;2.30;;;;;;;23.83;39.48;99396.53;4332414;33;33602;-61
2023/04/17 11:14:21;;;;;;;4.20;1.95;;;;;;;23.83;39.45;99399.25;4332670;33;34433;-61
2023/04/17 11:16:49;;;;;;;3.17;1.85;;;;;;;23.84;39.42;99396.28;4332419;33;33896;-61
2023/04/17 11:19:18;;;;;;;5.37;2.40;;;;;;;23.81;39.41;99394.03;4332216;33;33920;-61
2023/04/17 11:21:50;;;;;;;3.53;1.80;;;;;;;23.81;39.42;99395.94;4332275;33;33704;-60
2023/04/17 11:24:25;;;;;;;4.28;2.28;;;;;;;23.80;39.40;99400.56;4332546;33;34270;-61
2023/04/17 11:26:53;;;;;;;4.22;2.17;;;;;;;23.80;39.39;99397.81;4332614;33;34962;-61
2023/04/17 11:29:21;;;;;;;4.62;2.25;;;;;;;23.81;39.33;99398.66;4331803;33;34808;-61
2023/04/17 11:31:51;;;;;;;5.93;2.30;;;;;;;23.80;39.30;99388.81;4332443;33;33559;-61
2023/04/17 11:34:19;;;;;;;4.82;2.00;;;;;;;23.79;39.26;99390.72;4332552;33;33840;-61
2023/04/17 11:36:50;;;;;;;4.47;2.20;;;;;;;23.81;39.20;99393.19;4332484;33;34373;-61
2023/04/17 11:39:19;;;;;;;5.07;2.50;;;;;;;23.80;39.20;99388.81;4332551;33;34036;-61
2023/04/17 11:41:48;;;;;;;3.28;2.05;;;;;;;23.81;39.19;99395.94;4332418;33;33485;-61
2023/04/17 11:44:16;;;;;;;5.95;2.40;;;;;;;23.80;39.17;99395.09;4332241;33;33473;-61